Time;durP1;ratioP1;P1;durP2;ratioP2;P2;SDS_P1;SDS_P2;PMS_P1;PMS_P2;Temp;Humidity;BMP_temperature;BMP_pressure;BME280_temperature;BME280_humidity;BME280_pressure;Samples;Min_cycle;Max_cycle;Signal;HPM_P1;HPM_P2
2023/04/27 00:01:36;0.00;0.00;0.62;0.00;0.00;0.62;2.10;1.33;;;24.80;22.40;;;;;;2267620;61;20378;-66
2023/04/27 00:04:23;0.00;0.00;0.62;0.00;0.00;0.62;2.33;1.60;;;24.80;22.40;;;;;;2269100;61;20371;-64
2023/04/27 00:07:08;0.00;0.00;0.62;0.00;0.00;0.62;1.90;1.20;;;24.80;22.40;;;;;;2262948;61;20903;-62
2023/04/27 00:09:54;0.00;0.00;0.62;0.00;0.00;0.62;1.77;1.30;;;24.80;22.40;;;;;;2268659;61;20414;-65
2023/04/27 00:12:41;0.00;0.00;0.62;0.00;0.00;0.62;2.70;1.70;;;24.80;22.40;;;;;;2269391;61;20371;-64
2023/04/27 00:15:26;0.00;0.00;0.62;0.00;0.00;0.62;2.57;1.50;;;24.80;22.40;;;;;;2269127;61;20417;-63
2023/04/27 00:18:10;0.00;0.00;0.62;0.00;0.00;0.62;2.10;1.43;;;24.80;22.40;;;;;;2269284;61;20658;-64
2023/04/27 00:20:57;0.00;0.00;0.62;0.00;0.00;0.62;2.37;1.60;;;24.80;22.40;;;;;;2294577;40;20444;-63
2023/04/27 00:23:41;0.00;0.00;0.62;0.00;0.00;0.62;1.73;1.17;;;24.80;22.40;;;;;;2277945;60;20445;-64
2023/04/27 00:26:26;0.00;0.00;0.62;0.00;0.00;0.62;2.27;1.60;;;24.80;22.40;;;;;;2275440;60;20352;-63
2023/04/27 00:29:11;0.00;0.00;0.62;0.00;0.00;0.62;2.00;1.50;;;24.80;22.40;;;;;;2274736;60;20785;-63
2023/04/27 00:31:57;0.00;0.00;0.62;0.00;0.00;0.62;1.70;1.30;;;24.80;22.40;;;;;;2274930;60;20366;-63
2023/04/27 00:34:41;0.00;0.00;0.62;0.00;0.00;0.62;2.10;1.50;;;24.80;22.40;;;;;;2277119;60;20447;-66
2023/04/27 00:37:27;0.00;0.00;0.62;0.00;0.00;0.62;2.00;1.43;;;24.80;22.40;;;;;;2278254;60;20381;-61
2023/04/27 00:40:12;0.00;0.00;0.62;0.00;0.00;0.62;1.90;1.37;;;24.80;22.30;;;;;;2273882;60;20833;-62
2023/04/27 00:42:57;0.00;0.00;0.62;0.00;0.00;0.62;2.57;1.67;;;24.80;22.20;;;;;;2277528;60;20407;-63
2023/04/27 00:45:43;0.00;0.00;0.62;0.00;0.00;0.62;2.70;1.70;;;24.80;22.10;;;;;;2274940;60;20399;-61
2023/04/27 00:48:28;0.00;0.00;0.62;0.00;0.00;0.62;2.47;1.87;;;24.80;22.10;;;;;;2278063;60;20349;-61
2023/04/27 00:51:13;0.00;0.00;0.62;0.00;0.00;0.62;3.60;1.83;;;24.80;22.10;;;;;;2274298;60;20365;-61
2023/04/27 00:54:00;0.00;0.00;0.62;0.00;0.00;0.62;3.03;1.93;;;24.70;22.00;;;;;;2278675;60;20349;-61
2023/04/27 00:56:47;0.00;0.00;0.62;0.00;0.00;0.62;2.33;1.70;;;24.70;22.00;;;;;;2279188;60;20361;-60
2023/04/27 00:59:33;0.00;0.00;0.62;0.00;0.00;0.62;1.73;1.30;;;24.70;22.00;;;;;;2278551;60;20399;-61
2023/04/27 01:02:18;0.00;0.00;0.62;0.00;0.00;0.62;3.17;1.90;;;24.70;22.00;;;;;;2275946;60;20633;-61
2023/04/27 01:05:04;0.00;0.00;0.62;0.00;0.00;0.62;2.67;1.80;;;24.70;22.00;;;;;;2275059;60;20360;-61
2023/04/27 01:07:49;0.00;0.00;0.62;0.00;0.00;0.62;3.73;1.93;;;24.60;22.00;;;;;;2279238;60;20361;-63
2023/04/27 01:10:36;0.00;0.00;0.62;0.00;0.00;0.62;1.90;1.37;;;24.60;22.50;;;;;;2275620;60;20843;-58
2023/04/27 01:13:21;0.00;0.00;0.62;0.00;0.00;0.62;5.10;1.90;;;24.60;22.00;;;;;;2275379;60;20364;-60
2023/04/27 01:16:06;0.00;0.00;0.62;0.00;0.00;0.62;2.00;1.30;;;24.60;22.00;;;;;;2275543;60;20473;-61
2023/04/27 01:18:51;0.00;0.00;0.62;0.00;0.00;0.62;2.67;1.50;;;24.50;21.90;;;;;;2278313;60;20353;-61
2023/04/27 01:21:35;0.00;0.00;0.62;0.00;0.00;0.62;2.37;1.30;;;24.50;21.90;;;;;;2278578;60;20365;-61
2023/04/27 01:24:21;0.00;0.00;0.62;0.00;0.00;0.62;2.20;1.50;;;24.50;21.90;;;;;;2275435;60;20353;-62
2023/04/27 01:27:06;0.00;0.00;0.62;0.00;0.00;0.62;2.30;1.70;;;24.40;21.80;;;;;;2278254;60;20365;-61
2023/04/27 01:29:51;0.00;0.00;0.62;0.00;0.00;0.62;1.80;1.40;;;24.40;21.80;;;;;;2275367;60;20388;-60
2023/04/27 01:32:36;0.00;0.00;0.62;0.00;0.00;0.62;2.60;1.37;;;24.40;21.80;;;;;;2279113;60;20359;-63
2023/04/27 01:35:22;0.00;0.00;0.62;0.00;0.00;0.62;2.60;1.43;;;24.40;21.80;;;;;;2275000;60;20480;-61
2023/04/27 01:38:06;0.00;0.00;0.62;0.00;0.00;0.62;1.70;1.20;;;24.40;21.80;;;;;;2275892;60;20345;-61
2023/04/27 01:41:00;0.00;0.00;0.62;0.00;0.00;0.62;2.33;1.47;;;24.30;21.80;;;;;;2277812;60;20806;-61
2023/04/27 01:43:46;0.00;0.00;0.62;0.00;0.00;0.62;3.20;1.90;;;24.30;21.80;;;;;;2278669;60;20877;-62
2023/04/27 01:46:30;0.00;0.00;0.62;0.00;0.00;0.62;3.60;1.47;;;24.30;21.80;;;;;;2276021;60;20411;-61
2023/04/27 01:49:15;0.00;0.00;0.62;0.00;0.00;0.62;1.80;1.30;;;24.30;21.80;;;;;;2278220;60;20380;-61
2023/04/27 01:51:59;0.00;0.00;0.62;0.00;0.00;0.62;2.83;1.50;;;24.30;21.80;;;;;;2275934;60;20353;-61
2023/04/27 01:54:44;0.00;0.00;0.62;0.00;0.00;0.62;1.70;1.30;;;24.20;21.70;;;;;;2276032;60;20407;-61
2023/04/27 01:57:31;0.00;0.00;0.62;0.00;0.00;0.62;2.33;1.40;;;24.20;21.70;;;;;;2275255;60;20545;-61
2023/04/27 02:00:16;0.00;0.00;0.62;0.00;0.00;0.62;1.70;1.23;;;24.20;21.70;;;;;;2278908;60;20426;-59
2023/04/27 02:03:07;0.00;0.00;0.62;0.00;0.00;0.62;2.10;1.50;;;24.10;21.70;;;;;;2278731;60;21032;-60
2023/04/27 02:05:52;0.00;0.00;0.62;0.00;0.00;0.62;1.87;1.13;;;24.10;21.60;;;;;;2275020;60;20395;-60
2023/04/27 02:08:37;0.00;0.00;0.62;0.00;0.00;0.62;2.97;1.60;;;24.10;21.60;;;;;;2275216;60;20407;-61
2023/04/27 02:11:22;0.00;0.00;0.62;0.00;0.00;0.62;1.80;1.40;;;24.00;21.60;;;;;;2278028;60;20816;-64
2023/04/27 02:14:10;0.00;0.00;0.62;0.00;0.00;0.62;4.53;1.53;;;24.00;21.60;;;;;;2278754;60;20435;-61
2023/04/27 02:16:55;0.00;0.00;0.62;0.00;0.00;0.62;3.00;2.07;;;24.00;21.60;;;;;;2278627;60;20403;-61
2023/04/27 02:19:40;0.00;0.00;0.62;0.00;0.00;0.62;1.80;1.30;;;24.00;21.60;;;;;;2274164;60;20863;-61
2023/04/27 02:22:25;0.00;0.00;0.62;0.00;0.00;0.62;1.90;1.37;;;24.00;21.60;;;;;;2275567;60;20369;-60
2023/04/27 02:25:11;0.00;0.00;0.62;0.00;0.00;0.62;1.80;1.30;;;24.00;21.60;;;;;;2278034;60;20368;-59
2023/04/27 02:27:56;0.00;0.00;0.62;0.00;0.00;0.62;1.80;1.20;;;23.90;21.50;;;;;;2275253;60;20450;-61
2023/04/27 02:30:42;0.00;0.00;0.62;0.00;0.00;0.62;2.10;1.63;;;23.90;21.50;;;;;;2275042;60;20385;-61
2023/04/27 02:33:27;0.00;0.00;0.62;0.00;0.00;0.62;3.20;1.53;;;23.90;21.50;;;;;;2277911;60;20448;-60
2023/04/27 02:36:11;0.00;0.00;0.62;0.00;0.00;0.62;2.80;1.70;;;23.90;21.50;;;;;;2275624;60;20411;-61
2023/04/27 02:38:56;0.00;0.00;0.62;0.00;0.00;0.62;1.80;1.33;;;23.90;21.50;;;;;;2272245;60;20430;-61
2023/04/27 02:41:41;0.00;0.00;0.62;0.00;0.00;0.62;2.13;1.60;;;23.90;21.50;;;;;;2274594;60;20362;-61
2023/04/27 02:44:26;0.00;0.00;0.62;0.00;0.00;0.62;2.97;1.37;;;23.80;21.40;;;;;;2278834;60;20467;-61
2023/04/27 02:47:12;0.00;0.00;0.62;0.00;0.00;0.62;2.27;1.50;;;23.80;21.40;;;;;;2274887;60;20381;-62
2023/04/27 02:49:57;0.00;0.00;0.62;0.00;0.00;0.62;3.03;1.40;;;23.80;21.40;;;;;;2274546;60;20385;-63
2023/04/27 02:52:42;0.00;0.00;0.62;0.00;0.00;0.62;2.43;2.00;;;23.80;21.40;;;;;;2275087;60;20348;-61
2023/04/27 02:55:26;0.00;0.00;0.62;0.00;0.00;0.62;2.03;1.40;;;23.70;21.30;;;;;;2277990;60;20446;-61
2023/04/27 02:58:12;0.00;0.00;0.62;0.00;0.00;0.62;1.80;1.50;;;23.70;21.30;;;;;;2275130;60;20827;-62
2023/04/27 03:00:56;0.00;0.00;0.62;0.00;0.00;0.62;3.37;1.80;;;23.70;21.30;;;;;;2271807;60;20389;-63
2023/04/27 03:03:48;0.00;0.00;0.62;0.00;0.00;0.62;2.17;1.43;;;23.70;21.30;;;;;;2274352;60;20365;-61
2023/04/27 03:06:33;0.00;0.00;0.62;0.00;0.00;0.62;2.93;1.93;;;23.60;21.30;;;;;;2275231;60;20365;-62
2023/04/27 03:09:18;0.00;0.00;0.62;0.00;0.00;0.62;2.60;1.50;;;23.60;21.30;;;;;;2274392;60;20458;-62
2023/04/27 03:12:03;0.00;0.00;0.62;0.00;0.00;0.62;2.40;1.63;;;23.60;21.30;;;;;;2275319;60;20399;-61
2023/04/27 03:14:48;0.00;0.00;0.62;0.00;0.00;0.62;2.90;1.93;;;23.60;21.30;;;;;;2275201;60;20385;-62
2023/04/27 03:17:32;0.00;0.00;0.62;0.00;0.00;0.62;3.77;2.07;;;23.60;21.30;;;;;;2275078;60;20365;-61
2023/04/27 03:20:20;0.00;0.00;0.62;0.00;0.00;0.62;2.23;1.70;;;23.50;21.20;;;;;;2277962;60;20838;-60
2023/04/27 03:23:05;0.00;0.00;0.62;0.00;0.00;0.62;3.70;1.80;;;23.50;21.20;;;;;;2275134;60;20409;-61
2023/04/27 03:25:50;0.00;0.00;0.62;0.00;0.00;0.62;2.13;1.70;;;23.50;21.20;;;;;;2277972;60;20410;-61
2023/04/27 03:28:35;0.00;0.00;0.62;0.00;0.00;0.62;2.77;1.33;;;23.50;21.20;;;;;;2275142;60;20914;-61
2023/04/27 03:31:20;0.00;0.00;0.62;0.00;0.00;0.62;2.13;1.60;;;23.40;21.20;;;;;;2275103;60;20407;-61
2023/04/27 03:34:05;0.00;0.00;0.62;0.00;0.00;0.62;1.83;1.40;;;23.40;21.20;;;;;;2278194;60;20361;-60
2023/04/27 03:36:51;0.00;0.00;0.62;0.00;0.00;0.62;2.30;1.70;;;23.40;21.20;;;;;;2278199;60;20393;-61
2023/04/27 03:39:36;0.00;0.00;0.62;0.00;0.00;0.62;2.73;1.67;;;23.30;21.10;;;;;;2277214;60;20386;-64
2023/04/27 03:42:21;0.00;0.00;0.62;0.00;0.00;0.62;2.30;1.80;;;23.30;21.10;;;;;;2274554;60;20763;-64
2023/04/27 03:45:07;0.00;0.00;0.62;0.00;0.00;0.62;2.00;1.67;;;23.30;21.10;;;;;;2277814;60;20718;-64
2023/04/27 03:47:52;0.00;0.00;0.62;0.00;0.00;0.62;2.10;1.60;;;23.30;21.10;;;;;;2274236;60;20361;-64
2023/04/27 03:50:37;0.00;0.00;0.62;0.00;0.00;0.62;2.20;1.57;;;23.20;21.00;;;;;;2271694;60;20443;-64
2023/04/27 03:53:23;0.00;0.00;0.62;0.00;0.00;0.62;2.43;1.60;;;23.20;21.00;;;;;;2274614;60;20418;-64
2023/04/27 03:56:09;0.00;0.00;0.62;0.00;0.00;0.62;3.30;1.83;;;23.20;21.00;;;;;;2274349;60;20803;-64
2023/04/27 03:58:54;0.00;0.00;0.62;0.00;0.00;0.62;2.13;1.53;;;23.10;20.90;;;;;;2274449;60;20379;-64
2023/04/27 04:01:44;0.00;0.00;0.62;0.00;0.00;0.62;2.80;1.43;;;23.10;21.50;;;;;;2274591;60;20416;-63
2023/04/27 04:04:30;0.00;0.00;0.62;0.00;0.00;0.62;2.30;1.63;;;23.10;20.90;;;;;;2274708;60;20399;-65
2023/04/27 04:07:14;0.00;0.00;0.62;0.00;0.00;0.62;2.73;1.63;;;23.10;20.90;;;;;;2275416;60;20362;-61
2023/04/27 04:10:01;0.00;0.00;0.62;0.00;0.00;0.62;1.87;1.53;;;23.00;20.90;;;;;;2274192;60;20698;-61
2023/04/27 04:12:46;0.00;0.00;0.62;0.00;0.00;0.62;3.20;1.73;;;23.00;20.90;;;;;;2274847;60;20582;-64
2023/04/27 04:15:31;0.00;0.00;0.62;0.00;0.00;0.62;1.97;1.63;;;23.00;20.90;;;;;;2274602;60;20412;-63
2023/04/27 04:18:16;0.00;0.00;0.62;0.00;0.00;0.62;2.23;1.83;;;23.00;20.90;;;;;;2273789;60;20353;-63
2023/04/27 04:21:01;0.00;0.00;0.62;0.00;0.00;0.62;2.13;1.70;;;23.00;20.90;;;;;;2277498;60;20897;-62
2023/04/27 04:23:46;0.00;0.00;0.62;0.00;0.00;0.62;2.80;1.70;;;22.90;20.80;;;;;;2277487;60;20377;-63
2023/04/27 04:26:32;0.00;0.00;0.62;0.00;0.00;0.62;1.97;1.40;;;22.90;20.80;;;;;;2277827;60;20599;-63
2023/04/27 04:29:18;0.00;0.00;0.62;0.00;0.00;0.62;2.73;1.60;;;22.90;20.80;;;;;;2274238;60;20430;-63
2023/04/27 04:32:03;0.00;0.00;0.62;0.00;0.00;0.62;2.10;1.80;;;22.90;20.80;;;;;;2276965;60;20868;-61
2023/04/27 04:34:51;0.00;0.00;0.62;0.00;0.00;0.62;3.20;1.57;;;22.90;20.80;;;;;;2274960;60;20376;-61
2023/04/27 04:37:38;0.00;0.00;0.62;0.00;0.00;0.62;2.20;1.40;;;22.90;20.80;;;;;;2275520;60;20363;-60
2023/04/27 04:40:23;0.00;0.00;0.62;0.00;0.00;0.62;2.17;1.50;;;22.90;20.80;;;;;;2273879;60;20790;-63
2023/04/27 04:43:09;0.00;0.00;0.62;0.00;0.00;0.62;4.33;1.60;;;22.80;20.70;;;;;;2274727;60;20524;-63
2023/04/27 04:45:54;0.00;0.00;0.62;0.00;0.00;0.62;2.10;1.53;;;22.80;20.70;;;;;;2277265;60;20361;-63
2023/04/27 04:48:39;0.00;0.00;0.62;0.00;0.00;0.62;1.90;1.50;;;22.80;20.70;;;;;;2274786;60;20360;-62
2023/04/27 04:51:24;0.00;0.00;0.62;0.00;0.00;0.62;2.90;1.43;;;22.80;20.70;;;;;;2275461;60;20361;-60
2023/04/27 04:54:08;0.00;0.00;0.62;0.00;0.00;0.62;2.60;1.83;;;22.80;20.70;;;;;;2272056;60;20815;-61
2023/04/27 04:56:53;0.00;0.00;0.62;0.00;0.00;0.62;2.43;1.73;;;22.70;20.70;;;;;;2275252;60;20421;-61
2023/04/27 04:59:40;0.00;0.00;0.62;0.00;0.00;0.62;2.63;1.47;;;22.70;20.70;;;;;;2274852;60;20463;-60
2023/04/27 05:02:24;0.00;0.00;0.62;0.00;0.00;0.62;4.67;2.30;;;22.70;20.70;;;;;;2278030;60;20901;-61
2023/04/27 05:05:09;0.00;0.00;0.62;0.00;0.00;0.62;2.50;1.90;;;22.70;20.70;;;;;;2278570;60;20392;-63
2023/04/27 05:07:54;0.00;0.00;0.62;0.00;0.00;0.62;2.80;1.93;;;22.70;20.70;;;;;;2278059;60;20365;-60
2023/04/27 05:10:48;0.00;0.00;0.62;0.00;0.00;0.62;2.70;2.20;;;22.60;20.60;;;;;;2277952;60;20413;-60
2023/04/27 05:13:34;0.00;0.00;0.62;0.00;0.00;0.62;2.40;1.67;;;22.60;20.60;;;;;;2278680;60;20426;-60
2023/04/27 05:16:20;0.00;0.00;0.62;0.00;0.00;0.62;3.30;2.00;;;22.60;20.60;;;;;;2277981;60;20477;-63
2023/04/27 05:19:05;0.00;0.00;0.62;0.00;0.00;0.62;2.37;2.07;;;22.60;20.60;;;;;;2278455;60;20473;-59
2023/04/27 05:21:49;0.00;0.00;0.62;0.00;0.00;0.62;1.70;1.33;;;22.50;20.50;;;;;;2275350;60;20816;-59
2023/04/27 05:24:34;0.00;0.00;0.62;0.00;0.00;0.62;2.57;2.13;;;22.50;20.50;;;;;;2277976;60;20357;-59
2023/04/27 05:27:18;0.00;0.00;0.62;0.00;0.00;0.62;2.53;1.90;;;22.50;20.50;;;;;;2278653;60;20350;-58
2023/04/27 05:30:04;0.00;0.00;0.62;0.00;0.00;0.62;2.77;2.37;;;22.50;20.60;;;;;;2277697;60;20380;-60
2023/04/27 05:32:50;0.00;0.00;0.62;0.00;0.00;0.62;3.23;2.00;;;22.50;20.60;;;;;;2275972;60;20422;-57
2023/04/27 05:35:38;0.00;0.00;0.62;0.00;0.00;0.62;2.83;2.27;;;22.50;20.70;;;;;;2278385;60;20388;-60
2023/04/27 05:38:23;0.00;0.00;0.62;0.00;0.00;0.62;2.40;1.90;;;22.40;20.70;;;;;;2277576;60;20463;-67
2023/04/27 05:41:07;0.00;0.00;0.62;0.00;0.00;0.62;2.40;1.80;;;22.40;20.70;;;;;;2277731;60;20365;-61
2023/04/27 05:43:52;0.00;0.00;0.62;0.00;0.00;0.62;3.03;2.20;;;22.40;20.70;;;;;;2279220;60;20410;-63
2023/04/27 05:46:37;0.00;0.00;0.62;0.00;0.00;0.62;2.70;2.00;;;22.40;20.80;;;;;;2275746;60;20372;-62
2023/04/27 05:49:23;0.00;0.00;0.62;0.00;0.00;0.62;2.50;2.10;;;22.40;20.80;;;;;;2275446;60;20384;-64
2023/04/27 05:52:09;0.00;0.00;0.62;0.00;0.00;0.62;2.90;2.13;;;22.40;20.80;;;;;;2274855;60;20369;-64
2023/04/27 05:54:53;0.00;0.00;0.62;0.00;0.00;0.62;3.43;2.30;;;22.40;20.80;;;;;;2277265;60;20407;-65
2023/04/27 05:57:38;0.00;0.00;0.62;0.00;0.00;0.62;2.80;2.27;;;22.30;20.80;;;;;;2277635;60;20369;-64
2023/04/27 06:00:23;0.00;0.00;0.62;0.00;0.00;0.62;2.93;1.80;;;22.30;20.80;;;;;;2276968;60;20441;-65
2023/04/27 06:03:08;0.00;0.00;0.62;0.00;0.00;0.62;2.83;2.03;;;22.30;20.80;;;;;;2277986;60;20387;-65
2023/04/27 06:05:55;0.00;0.00;0.62;0.00;0.00;0.62;3.97;2.20;;;22.30;20.80;;;;;;2278307;60;20357;-65
2023/04/27 06:08:41;0.00;0.00;0.62;0.00;0.00;0.62;2.07;1.60;;;22.30;20.80;;;;;;2278190;60;20460;-63
2023/04/27 06:11:26;0.00;0.00;0.62;0.00;0.00;0.62;4.77;2.37;;;22.30;20.80;;;;;;2278677;60;20361;-63
2023/04/27 06:14:10;0.00;0.00;0.62;0.00;0.00;0.62;2.90;2.00;;;22.30;20.80;;;;;;2278582;60;20830;-63
2023/04/27 06:16:55;0.00;0.00;0.62;0.00;0.00;0.62;2.30;1.70;;;22.20;20.70;;;;;;2278647;60;20411;-62
2023/04/27 06:19:40;0.00;0.00;0.62;0.00;0.00;0.62;2.30;1.50;;;22.20;20.80;;;;;;2278467;60;20399;-64
2023/04/27 06:22:27;0.00;0.00;0.62;0.00;0.00;0.62;2.40;1.93;;;22.20;20.80;;;;;;2278447;60;20419;-64
2023/04/27 06:25:12;0.00;0.00;0.62;0.00;0.00;0.62;2.80;1.93;;;22.20;20.80;;;;;;2278365;60;20385;-67
2023/04/27 06:27:57;0.00;0.00;0.62;0.00;0.00;0.62;1.97;1.60;;;22.20;20.80;;;;;;2274986;60;20939;-65
2023/04/27 06:30:42;0.00;0.00;0.62;0.00;0.00;0.62;2.90;2.03;;;22.20;20.80;;;;;;2276740;60;20967;-66
2023/04/27 06:33:26;0.00;0.00;0.62;0.00;0.00;0.62;2.40;1.73;;;22.10;20.70;;;;;;2278076;60;20452;-63
2023/04/27 06:36:11;0.00;0.00;0.62;0.00;0.00;0.62;2.60;1.63;;;22.10;20.80;;;;;;2278097;60;20909;-65
2023/04/27 06:38:58;0.00;0.00;0.62;0.00;0.00;0.62;2.50;1.70;;;22.10;20.80;;;;;;2278373;60;20485;-64
2023/04/27 06:41:43;0.00;0.00;0.62;0.00;0.00;0.62;2.67;1.90;;;22.10;20.80;;;;;;2277526;60;20384;-64
2023/04/27 06:44:36;0.00;0.00;0.62;0.00;0.00;0.62;2.07;1.50;;;22.10;20.80;;;;;;2274834;60;20438;-65
2023/04/27 06:47:21;0.00;0.00;0.62;0.00;0.00;0.62;1.70;1.20;;;22.10;20.80;;;;;;2278625;60;20353;-66
2023/04/27 06:50:07;0.00;0.00;0.62;0.00;0.00;0.62;2.40;1.50;;;22.10;20.90;;;;;;2278466;60;20381;-67
2023/04/27 06:52:51;0.00;0.00;0.62;0.00;0.00;0.62;2.10;1.40;;;22.10;20.90;;;;;;2277975;60;20890;-67
2023/04/27 06:55:37;0.00;0.00;0.62;0.00;0.00;0.62;2.47;1.60;;;22.00;20.90;;;;;;2278387;60;20393;-65
2023/04/27 06:58:22;0.00;0.00;0.62;0.00;0.00;0.62;2.63;1.80;;;22.10;20.90;;;;;;2278699;60;20357;-66
2023/04/27 07:01:07;0.00;0.00;0.62;0.00;0.00;0.62;1.77;1.10;;;22.10;20.90;;;;;;2277564;60;20836;-65
2023/04/27 07:03:51;0.00;0.00;0.62;0.00;0.00;0.62;2.10;1.17;;;22.10;21.00;;;;;;2278814;60;20412;-66
2023/04/27 07:06:36;0.00;0.00;0.62;0.00;0.00;0.62;2.37;1.30;;;22.10;21.00;;;;;;2278323;60;20410;-63
2023/04/27 07:09:21;0.00;0.00;0.62;0.00;0.00;0.62;2.20;1.60;;;22.10;21.00;;;;;;2278229;60;20381;-64
2023/04/27 07:12:07;0.00;0.00;0.62;0.00;0.00;0.62;2.07;1.33;;;22.10;21.00;;;;;;2277488;60;20811;-65
2023/04/27 07:14:52;0.00;0.00;0.62;0.00;0.00;0.62;2.10;1.70;;;22.10;21.00;;;;;;2276282;60;20412;-64
2023/04/27 07:17:36;0.00;0.00;0.62;0.00;0.00;0.62;2.77;1.60;;;22.10;21.00;;;;;;2279595;60;20461;-63
2023/04/27 07:20:21;0.00;0.00;0.62;0.00;0.00;0.62;2.00;1.30;;;22.10;21.00;;;;;;2275050;60;20503;-63
2023/04/27 07:23:06;0.00;0.00;0.62;0.00;0.00;0.62;2.97;1.30;;;22.10;21.00;;;;;;2278353;60;20384;-65
2023/04/27 07:25:53;0.00;0.00;0.62;0.00;0.00;0.62;2.57;1.50;;;22.10;21.00;;;;;;2280058;60;20824;-64
2023/04/27 07:28:39;0.00;0.00;0.62;0.00;0.00;0.62;1.70;1.27;;;22.10;21.00;;;;;;2279564;60;20469;-64
2023/04/27 07:31:23;0.00;0.00;0.62;0.00;0.00;0.62;1.80;1.50;;;22.20;21.10;;;;;;2279015;60;20369;-67
2023/04/27 07:34:10;0.00;0.00;0.62;0.00;0.00;0.62;2.40;1.60;;;22.20;21.10;;;;;;2276229;60;20439;-65
2023/04/27 07:36:54;0.00;0.00;0.62;0.00;0.00;0.62;2.63;1.80;;;22.20;21.10;;;;;;2278476;60;20396;-66
2023/04/27 07:39:39;0.00;0.00;0.62;0.00;0.00;0.62;2.93;1.83;;;22.20;21.10;;;;;;2276717;60;20512;-64
2023/04/27 07:42:23;0.00;0.00;0.62;0.00;0.00;0.62;2.40;1.70;;;22.20;21.00;;;;;;2276856;60;20430;-65
2023/04/27 07:45:10;0.00;0.00;0.62;0.00;0.00;0.62;2.60;1.97;;;22.20;21.00;;;;;;2276351;60;20357;-67
2023/04/27 07:47:56;0.00;0.00;0.62;0.00;0.00;0.62;2.20;1.57;;;22.20;21.00;;;;;;2278346;60;20369;-65
2023/04/27 07:50:41;0.00;0.00;0.62;0.00;0.00;0.62;3.60;2.23;;;22.20;21.00;;;;;;2278460;60;20381;-63
2023/04/27 07:53:25;0.00;0.00;0.62;0.00;0.00;0.62;3.33;2.07;;;22.20;21.00;;;;;;2279092;60;20357;-62
2023/04/27 07:56:11;0.00;0.00;0.62;0.00;0.00;0.62;2.70;2.10;;;22.20;21.10;;;;;;2279181;60;20400;-59
2023/04/27 07:58:55;0.00;0.00;0.62;0.00;0.00;0.62;2.70;2.10;;;22.20;21.10;;;;;;2277983;60;20368;-62
2023/04/27 08:01:41;0.00;0.00;0.62;0.00;0.00;0.62;2.93;2.30;;;22.20;21.10;;;;;;2279205;60;20763;-66
2023/04/27 08:04:26;0.00;0.00;0.62;0.00;0.00;0.62;3.23;2.33;;;22.30;21.20;;;;;;2276960;60;20949;-64
2023/04/27 08:07:11;0.00;0.00;0.62;0.00;0.00;0.62;3.20;2.20;;;22.30;21.20;;;;;;2277034;60;20349;-57
2023/04/27 08:09:55;0.00;0.00;0.62;0.00;0.00;0.62;4.10;2.80;;;22.30;21.20;;;;;;2280755;39;20405;-63
2023/04/27 08:12:40;0.00;0.00;0.62;0.00;0.00;0.62;3.23;2.37;;;22.30;21.20;;;;;;2274915;60;20416;-61
2023/04/27 08:15:25;0.00;0.00;0.62;0.00;0.00;0.62;3.90;3.00;;;22.30;21.20;;;;;;2278696;60;20369;-63
2023/04/27 08:18:12;0.00;0.00;0.62;0.00;0.00;0.62;4.00;3.27;;;22.30;21.20;;;;;;2278769;60;20364;-64
2023/04/27 08:20:56;0.00;0.00;0.62;0.00;0.00;0.62;3.40;2.57;;;22.30;21.20;;;;;;2278290;60;20896;-65
2023/04/27 08:23:42;0.00;0.00;0.62;0.00;0.00;0.62;4.53;3.13;;;22.40;21.30;;;;;;2278412;60;20419;-64
2023/04/27 08:26:27;0.00;0.00;0.62;0.00;0.00;0.62;4.10;3.10;;;22.40;21.30;;;;;;2278799;60;20426;-65
2023/04/27 08:29:12;0.00;0.00;0.62;0.00;0.00;0.62;4.90;3.80;;;22.40;21.40;;;;;;2277905;60;20468;-64
2023/04/27 08:32:00;0.00;0.00;0.62;0.00;0.00;0.62;4.10;3.13;;;22.40;21.40;;;;;;2278802;60;20763;-64
2023/04/27 08:34:47;0.00;0.00;0.62;0.00;0.00;0.62;3.93;3.30;;;22.50;21.40;;;;;;2275486;60;20410;-62
2023/04/27 08:37:31;0.00;0.00;0.62;0.00;0.00;0.62;3.70;3.10;;;22.50;21.50;;;;;;2278597;60;20353;-62
2023/04/27 08:40:17;0.00;0.00;0.62;0.00;0.00;0.62;4.47;3.40;;;22.50;21.50;;;;;;2276935;60;20430;-65
2023/04/27 08:43:02;0.00;0.00;0.62;0.00;0.00;0.62;4.30;3.20;;;22.50;21.50;;;;;;2276595;60;20446;-68
2023/04/27 08:45:52;0.00;0.00;0.62;0.00;0.00;0.62;3.93;3.10;;;22.60;21.50;;;;;;2276393;60;20880;-67
2023/04/27 08:48:36;0.00;0.00;0.62;0.00;0.00;0.62;3.53;2.90;;;22.60;21.50;;;;;;2277151;60;20426;-65
2023/04/27 08:51:25;0.00;0.00;0.62;0.00;0.00;0.62;3.50;2.80;;;22.60;21.50;;;;;;2277042;60;20402;-66
2023/04/27 08:54:10;0.00;0.00;0.62;0.00;0.00;0.62;4.17;3.37;;;22.70;21.60;;;;;;2274111;60;20770;-64
2023/04/27 08:56:55;0.00;0.00;0.62;0.00;0.00;0.62;3.80;3.30;;;22.70;21.60;;;;;;2273595;60;20832;-68
2023/04/27 08:59:40;0.00;0.00;0.62;0.00;0.00;0.62;4.87;4.03;;;22.70;21.60;;;;;;2273772;60;20490;-65
2023/04/27 09:02:28;0.00;0.00;0.62;0.00;0.00;0.62;4.30;3.60;;;22.70;21.60;;;;;;2277731;60;20771;-65
2023/04/27 09:05:17;0.00;0.00;0.62;0.00;0.00;0.62;4.10;3.03;;;22.70;21.60;;;;;;2276862;60;20418;-65
2023/04/27 09:08:07;0.00;0.00;0.62;0.00;0.00;0.62;3.77;3.37;;;22.80;21.70;;;;;;2276556;60;20358;-67
2023/04/27 09:10:53;0.00;0.00;0.62;0.00;0.00;0.62;4.83;3.50;;;22.80;21.70;;;;;;2276459;60;20401;-68
2023/04/27 09:13:41;0.00;0.00;0.62;0.00;0.00;0.62;4.43;3.57;;;22.80;21.70;;;;;;2276163;60;20783;-63
2023/04/27 09:16:27;0.00;0.00;0.62;0.00;0.00;0.62;3.83;3.43;;;22.80;21.70;;;;;;2276437;60;20393;-63
2023/04/27 09:19:23;0.00;0.00;0.62;0.00;0.00;0.62;3.70;3.17;;;22.90;21.80;;;;;;2277201;60;20842;-63
2023/04/27 09:22:10;0.00;0.00;0.62;0.00;0.00;0.62;4.13;3.40;;;22.90;21.80;;;;;;2276830;60;20360;-67
2023/04/27 09:24:56;0.00;0.00;0.62;0.00;0.00;0.62;4.97;3.70;;;22.90;21.80;;;;;;2276879;60;20377;-65
2023/04/27 09:27:43;0.00;0.00;0.62;0.00;0.00;0.62;4.00;3.60;;;22.90;21.80;;;;;;2276844;60;20393;-66
2023/04/27 09:30:29;0.00;0.00;0.62;0.00;0.00;0.62;3.97;3.40;;;22.90;21.80;;;;;;2273699;60;20400;-63
2023/04/27 09:33:14;0.00;0.00;0.62;0.00;0.00;0.62;5.33;3.60;;;23.00;21.80;;;;;;2276733;60;20377;-63
2023/04/27 09:36:01;0.00;0.00;0.62;0.00;0.00;0.62;5.47;3.73;;;23.00;21.80;;;;;;2276268;60;20552;-66
2023/04/27 09:38:46;0.00;0.00;0.62;0.00;0.00;0.62;4.60;3.77;;;23.00;21.80;;;;;;2273438;60;20365;-65
2023/04/27 09:41:34;0.00;0.00;0.62;0.00;0.00;0.62;4.10;3.40;;;23.10;21.90;;;;;;2320888;57;20364;-64
2023/04/27 09:44:19;0.00;0.00;0.62;0.00;0.00;0.62;4.13;3.23;;;23.10;21.90;;;;;;2276627;60;20369;-60
2023/04/27 09:47:06;0.00;0.00;0.62;0.00;0.00;0.62;3.70;3.07;;;23.10;21.90;;;;;;2276598;60;20349;-61
2023/04/27 09:49:51;0.00;0.00;0.62;0.00;0.00;0.62;4.87;3.80;;;23.20;22.50;;;;;;2274906;60;20527;-61
2023/04/27 09:52:36;0.00;0.00;0.62;0.00;0.00;0.62;3.73;3.07;;;23.20;21.90;;;;;;2273691;60;20369;-65
2023/04/27 09:55:29;0.00;0.00;0.62;0.00;0.00;0.62;4.07;3.20;;;23.20;21.90;;;;;;2276612;60;20357;-66
2023/04/27 09:58:56;0.00;0.00;0.62;0.00;0.00;0.62;4.27;3.70;;;23.20;21.90;;;;;;2276151;60;20454;-59
2023/04/27 10:01:46;0.00;0.00;0.62;0.00;0.00;0.62;4.20;3.30;;;23.30;22.00;;;;;;2255841;61;20495;-66
2023/04/27 10:04:56;0.00;0.00;0.62;0.00;0.00;0.62;4.77;3.47;;;23.30;22.00;;;;;;2276381;60;20361;-64
2023/04/27 10:07:41;0.00;0.00;0.62;0.00;0.00;0.62;3.83;3.37;;;23.30;22.00;;;;;;2276836;60;20470;-58
2023/04/27 10:10:26;0.00;0.00;0.62;0.00;0.00;0.62;4.73;3.80;;;23.30;21.90;;;;;;2276319;60;20408;-65
2023/04/27 10:13:21;0.00;0.00;0.62;0.00;0.00;0.62;5.17;3.77;;;23.40;22.00;;;;;;2275767;60;20792;-60
2023/04/27 10:16:17;0.00;0.00;0.62;0.00;0.00;0.62;4.20;3.60;;;23.40;22.00;;;;;;2276608;60;20936;-65
2023/04/27 10:19:09;0.00;0.00;0.62;0.00;0.00;0.62;5.90;4.47;;;23.40;22.00;;;;;;2276085;60;20415;-64
2023/04/27 10:21:56;0.00;0.00;0.62;0.00;0.00;0.62;5.47;4.20;;;23.50;22.10;;;;;;2276655;60;20467;-63
2023/04/27 10:24:43;0.00;0.00;0.62;0.00;0.00;0.62;4.57;4.00;;;23.50;22.00;;;;;;2276625;60;20661;-64
2023/04/27 10:27:37;0.00;0.00;0.62;0.00;0.00;0.62;4.33;3.30;;;23.50;22.00;;;;;;2276151;60;20369;-62
2023/04/27 10:33:42;0.00;0.00;0.62;0.00;0.00;0.62;4.70;3.60;;;23.60;22.00;;;;;;2273839;61;20402;-66
2023/04/27 10:36:35;0.00;0.00;0.62;0.00;0.00;0.62;4.73;4.10;;;23.60;22.00;;;;;;2272548;61;20382;-57
2023/04/27 10:39:21;0.00;0.00;0.62;0.00;0.00;0.62;4.40;3.80;;;23.60;22.00;;;;;;2273366;60;20401;-67
2023/04/27 10:42:07;0.00;0.00;0.62;0.00;0.00;0.62;5.13;3.90;;;23.60;22.00;;;;;;2276260;60;20361;-64
2023/04/27 10:44:56;0.00;0.00;0.62;0.00;0.00;0.62;4.60;4.10;;;23.70;22.20;;;;;;2276478;60;20397;-63
2023/04/27 10:47:44;0.00;0.00;0.62;0.00;0.00;0.62;4.13;3.40;;;23.70;22.20;;;;;;2276831;60;20427;-68
2023/04/27 10:50:33;0.00;0.00;0.62;0.00;0.00;0.62;4.50;3.63;;;23.70;22.10;;;;;;2275684;60;20966;-63
2023/04/27 10:53:17;0.00;0.00;0.62;0.00;0.00;0.62;4.43;3.20;;;23.70;22.10;;;;;;2276868;60;20446;-65
2023/04/27 10:56:05;0.00;0.00;0.62;0.00;0.00;0.62;5.43;3.93;;;23.80;22.20;;;;;;2276058;60;20400;-62
2023/04/27 10:58:49;0.00;0.00;0.62;0.00;0.00;0.62;4.37;3.40;;;23.80;22.20;;;;;;2282988;39;20361;-66